Terminal Aerodrome Forecast
Issued by NWS Dodge City, KS

Home | Current Version | Previous Version | Graphics & Text | Print | Product List | Glossary Off
Versions: 1 2 3 4 5 6 7 8 9 10 11 12 13 14 15 16 17 18 19 20

000
FTUS43 KDDC 052320
TAFDDC
TAF
KDDC 052320Z 0600/0624 09007KT P6SM FEW250
     FM060400 36019G30KT P6SM FEW250
     FM061400 35009KT P6SM FEW250
     FM062300 10006KT P6SM SKC=

USA.gov is the U.S. government's official web portal to all federal, state and local government web resources and services.